Time;durP1;ratioP1;P1;durP2;ratioP2;P2;SDS_P1;SDS_P2;PMS_P1;PMS_P2;Temp;Humidity;BMP_temperature;BMP_pressure;BME280_temperature;BME280_humidity;BME280_pressure;Samples;Min_cycle;Max_cycle;Signal;HPM_P1;HPM_P2
2021/08/02 00:00:48;;;;;;;8.73;7.93;;;19.10;99.90;;;;;;5098752;28;20483;-82
2021/08/02 00:03:19;;;;;;;9.60;8.67;;;19.10;99.90;;;;;;5096719;28;20530;-82
2021/08/02 00:05:48;;;;;;;8.90;8.10;;;19.00;99.90;;;;;;5095745;28;20449;-80
2021/08/02 00:08:21;;;;;;;8.33;7.63;;;19.00;99.90;;;;;;5097581;28;20472;-80
2021/08/02 00:10:52;;;;;;;8.60;7.57;;;19.00;99.90;;;;;;5099226;28;20485;-80
2021/08/02 00:13:29;;;;;;;10.90;7.17;;;19.00;99.90;;;;;;5103410;28;20462;-80
2021/08/02 00:15:58;;;;;;;8.67;7.67;;;18.90;99.90;;;;;;5105157;28;20953;-80
2021/08/02 00:18:27;;;;;;;9.47;8.00;;;18.90;99.90;;;;;;5105165;27;20455;-79
2021/08/02 00:20:55;;;;;;;10.50;7.73;;;18.90;99.90;;;;;;5099910;28;20457;-80
2021/08/02 00:23:25;;;;;;;9.43;8.60;;;18.80;99.90;;;;;;5102635;28;20482;-80
2021/08/02 00:25:55;;;;;;;8.47;7.67;;;18.90;99.90;;;;;;5105215;28;20511;-80
2021/08/02 00:28:23;;;;;;;9.17;8.27;;;18.80;99.90;;;;;;5106095;28;20471;-80
2021/08/02 00:30:53;;;;;;;8.33;7.23;;;18.80;99.90;;;;;;5106098;28;20498;-80
2021/08/02 00:33:20;;;;;;;9.27;8.37;;;18.80;99.90;;;;;;5095942;28;20826;-82
2021/08/02 00:35:54;;;;;;;9.10;7.20;;;18.80;99.90;;;;;;5101346;28;20962;-80
2021/08/02 00:38:26;;;;;;;8.70;7.47;;;18.80;99.90;;;;;;5096405;28;20587;-80
2021/08/02 00:41:16;;;;;;;10.67;7.63;;;18.80;99.90;;;;;;5100152;28;20449;-80
2021/08/02 00:44:32;;;;;;;10.63;8.30;;;18.80;99.90;;;;;;5099580;28;20487;-81
2021/08/02 00:47:04;;;;;;;8.00;7.27;;;18.80;99.90;;;;;;5100240;28;20486;-81
2021/08/02 00:49:32;;;;;;;10.00;7.90;;;18.80;99.90;;;;;;5094719;28;20490;-79
2021/08/02 00:52:00;;;;;;;10.20;8.30;;;18.80;99.90;;;;;;5102995;28;20821;-81
2021/08/02 00:54:28;;;;;;;10.30;8.30;;;18.80;99.90;;;;;;5100686;28;20452;-80
2021/08/02 00:57:00;;;;;;;8.13;7.43;;;18.80;99.90;;;;;;5093750;28;20465;-82
2021/08/02 00:59:29;;;;;;;8.60;7.73;;;18.80;99.90;;;;;;5098812;28;20484;-81
2021/08/02 01:01:59;;;;;;;7.50;6.80;;;18.80;99.90;;;;;;5101609;28;20457;-81
2021/08/02 01:04:28;;;;;;;7.57;6.87;;;18.80;99.90;;;;;;5102738;28;20496;-79
2021/08/02 01:06:58;;;;;;;8.53;6.43;;;18.80;99.90;;;;;;5107486;28;20505;-80
2021/08/02 01:09:26;;;;;;;7.13;6.50;;;18.80;99.90;;;;;;5100977;28;20540;-82
2021/08/02 01:11:55;;;;;;;7.67;6.50;;;18.80;99.90;;;;;;5096855;28;20534;-80
2021/08/02 01:14:25;;;;;;;9.00;8.20;;;18.80;99.90;;;;;;5096097;28;20557;-80
2021/08/02 01:16:55;;;;;;;9.03;8.03;;;18.80;99.90;;;;;;5093443;28;20479;-80
2021/08/02 01:19:24;;;;;;;7.97;7.17;;;18.80;99.90;;;;;;5094295;28;20465;-80
2021/08/02 01:21:56;;;;;;;8.37;7.60;;;18.80;99.90;;;;;;5097354;28;20556;-80
2021/08/02 01:24:26;;;;;;;7.93;7.10;;;18.80;99.90;;;;;;5099572;28;20484;-80
2021/08/02 01:27:29;;;;;;;14.50;7.70;;;18.80;99.90;;;;;;5096693;28;20465;-80
2021/08/02 01:30:19;;;;;;;8.60;7.53;;;18.80;99.90;;;;;;5101195;28;20518;-81
2021/08/02 01:32:47;;;;;;;8.43;6.60;;;18.80;99.90;;;;;;5102546;28;20445;-80
2021/08/02 01:35:14;;;;;;;7.13;6.43;;;18.80;99.90;;;;;;5104495;28;20794;-80
2021/08/02 01:37:42;;;;;;;6.70;6.10;;;18.80;99.90;;;;;;5098873;28;20454;-80
2021/08/02 01:40:12;;;;;;;10.90;6.33;;;18.80;99.90;;;;;;5095809;28;20480;-81
2021/08/02 01:42:39;;;;;;;8.80;6.43;;;18.80;99.90;;;;;;5096206;28;21184;-79
2021/08/02 01:45:07;;;;;;;7.30;6.57;;;18.80;99.90;;;;;;5098808;28;20491;-80
2021/08/02 01:48:00;;;;;;;6.83;6.13;;;18.80;99.90;;;;;;5095933;28;20454;-79
2021/08/02 01:50:37;;;;;;;9.47;5.50;;;18.80;99.90;;;;;;5088691;28;20529;-80
2021/08/02 01:53:12;;;;;;;6.73;6.13;;;18.70;99.90;;;;;;5097435;28;20468;-81
2021/08/02 01:55:47;;;;;;;6.97;6.27;;;18.70;99.90;;;;;;5096938;28;20448;-79
2021/08/02 01:58:16;;;;;;;7.13;5.83;;;18.70;99.90;;;;;;5100661;28;20551;-79
2021/08/02 02:00:48;;;;;;;6.63;6.03;;;18.60;99.90;;;;;;5093013;28;20500;-80
2021/08/02 02:03:19;;;;;;;5.30;4.90;;;18.60;99.90;;;;;;5091887;28;20496;-79
2021/08/02 02:05:50;;;;;;;5.47;4.97;;;18.60;99.90;;;;;;5092867;28;20460;-82
2021/08/02 02:08:20;;;;;;;6.80;5.10;;;18.60;99.90;;;;;;5101572;28;20477;-80
2021/08/02 02:10:54;;;;;;;6.33;5.30;;;18.50;99.90;;;;;;5098075;28;20456;-81
2021/08/02 02:13:25;;;;;;;6.23;4.97;;;18.50;99.90;;;;;;5099248;28;20458;-80
2021/08/02 02:15:56;;;;;;;5.23;4.73;;;18.50;99.90;;;;;;5100751;28;20544;-80
2021/08/02 02:18:25;;;;;;;6.60;4.80;;;18.50;99.90;;;;;;5104198;28;20474;-79
2021/08/02 02:20:55;;;;;;;5.07;4.63;;;18.40;99.90;;;;;;5098403;28;20453;-80
2021/08/02 02:23:23;;;;;;;6.17;5.57;;;18.40;99.90;;;;;;5099144;28;20464;-80
2021/08/02 02:25:53;;;;;;;6.20;5.60;;;18.40;99.90;;;;;;5098467;28;20449;-79
2021/08/02 02:28:23;;;;;;;8.40;5.43;;;18.40;99.90;;;;;;5094367;28;20542;-79
2021/08/02 02:30:52;;;;;;;5.73;5.07;;;18.40;99.90;;;;;;5100262;28;20781;-80
2021/08/02 02:33:19;;;;;;;6.03;4.93;;;18.40;99.90;;;;;;5105544;28;20470;-80
2021/08/02 02:35:50;;;;;;;5.10;4.60;;;18.40;99.90;;;;;;5096749;28;20487;-80
2021/08/02 02:38:19;;;;;;;5.30;4.60;;;18.40;99.90;;;;;;5101616;28;20556;-80
2021/08/02 02:40:46;;;;;;;6.27;4.87;;;18.40;99.90;;;;;;5103725;28;20483;-81
2021/08/02 02:43:15;;;;;;;5.87;5.20;;;18.30;99.90;;;;;;5102957;28;20461;-79
2021/08/02 02:45:44;;;;;;;8.00;5.17;;;18.30;99.90;;;;;;5100513;28;20465;-80
2021/08/02 02:48:15;;;;;;;6.57;4.60;;;18.30;99.90;;;;;;5111652;28;20488;-80
2021/08/02 02:50:45;;;;;;;6.63;4.43;;;18.30;99.90;;;;;;5105336;28;20464;-79
2021/08/02 02:53:15;;;;;;;8.70;6.27;;;18.30;99.90;;;;;;5100303;28;20899;-80
2021/08/02 02:55:43;;;;;;;12.93;4.90;;;18.30;99.90;;;;;;5102385;28;20543;-80
2021/08/02 02:58:12;;;;;;;5.50;4.43;;;18.30;99.90;;;;;;5105829;28;20939;-80
2021/08/02 03:00:41;;;;;;;6.73;4.63;;;18.30;99.90;;;;;;5102813;28;20830;-79
2021/08/02 03:03:14;;;;;;;5.43;4.90;;;18.30;99.90;;;;;;5099752;27;21077;-82
2021/08/02 03:05:42;;;;;;;6.17;4.20;;;18.30;99.90;;;;;;5105117;28;20463;-79
2021/08/02 03:08:12;;;;;;;5.60;4.53;;;18.30;99.90;;;;;;5103160;28;20557;-80
2021/08/02 03:10:40;;;;;;;5.63;4.27;;;18.30;99.90;;;;;;5099463;28;20458;-79
2021/08/02 03:13:07;;;;;;;6.53;4.57;;;18.30;99.90;;;;;;5106265;28;20952;-81
2021/08/02 03:15:36;;;;;;;7.20;4.60;;;18.30;99.90;;;;;;5096570;28;20487;-80
2021/08/02 03:18:06;;;;;;;8.73;4.80;;;18.20;99.90;;;;;;5101101;27;20807;-81
2021/08/02 03:20:34;;;;;;;7.53;5.27;;;18.20;99.90;;;;;;5104153;27;20550;-80
2021/08/02 03:23:08;;;;;;;5.30;4.80;;;18.20;99.90;;;;;;5102408;28;20482;-80
2021/08/02 03:25:38;;;;;;;4.47;4.03;;;18.20;99.90;;;;;;5101656;28;20979;-79
2021/08/02 03:28:12;;;;;;;11.93;4.30;;;18.20;99.90;;;;;;5102808;28;20447;-82
2021/08/02 03:30:43;;;;;;;4.60;4.20;;;18.20;99.90;;;;;;5103174;28;20470;-80
2021/08/02 03:33:18;;;;;;;7.27;5.00;;;18.20;99.90;;;;;;5101085;28;20497;-81
2021/08/02 03:35:47;;;;;;;7.27;4.40;;;18.20;99.90;;;;;;5101257;28;20463;-80
2021/08/02 03:38:16;;;;;;;6.53;5.33;;;18.20;99.90;;;;;;5105572;28;20947;-80
2021/08/02 03:40:45;;;;;;;6.73;4.77;;;18.20;99.90;;;;;;5095298;28;20489;-80
2021/08/02 03:43:13;;;;;;;6.50;5.20;;;18.20;99.90;;;;;;5098910;28;20456;-80
2021/08/02 03:45:40;;;;;;;7.97;5.00;;;18.20;99.90;;;;;;5100793;28;20494;-81
2021/08/02 03:48:10;;;;;;;6.27;4.97;;;18.20;99.90;;;;;;5099907;28;20452;-80
2021/08/02 03:50:39;;;;;;;7.57;5.03;;;18.20;99.90;;;;;;5096146;28;20462;-81
2021/08/02 03:53:06;;;;;;;8.07;5.10;;;18.20;99.90;;;;;;5102848;28;20471;-80
2021/08/02 03:55:36;;;;;;;6.53;4.97;;;18.20;99.90;;;;;;5100254;28;20456;-80
2021/08/02 03:58:06;;;;;;;6.80;5.00;;;18.20;99.90;;;;;;5099801;28;20575;-79
2021/08/02 04:00:33;;;;;;;6.40;5.10;;;18.20;99.90;;;;;;5106525;28;20479;-80
2021/08/02 04:03:02;;;;;;;5.70;5.10;;;18.10;99.90;;;;;;5103472;28;20813;-80
2021/08/02 04:05:30;;;;;;;5.77;5.23;;;18.10;99.90;;;;;;5097271;28;20481;-80
2021/08/02 04:07:59;;;;;;;6.10;5.00;;;18.20;99.90;;;;;;5096629;28;20463;-82
2021/08/02 04:10:27;;;;;;;6.67;4.73;;;18.10;99.90;;;;;;5096479;28;20949;-80
2021/08/02 04:12:54;;;;;;;6.40;4.70;;;18.20;99.90;;;;;;5099651;28;21008;-80
2021/08/02 04:15:22;;;;;;;5.30;4.53;;;18.10;99.90;;;;;;5094770;28;20802;-80
2021/08/02 04:17:49;;;;;;;6.97;4.40;;;18.10;99.90;;;;;;5098698;28;20464;-80
2021/08/02 04:20:18;;;;;;;7.70;4.50;;;18.10;99.90;;;;;;5107247;27;20455;-80
2021/08/02 04:22:48;;;;;;;7.47;4.80;;;18.10;99.90;;;;;;5098788;28;20875;-80
2021/08/02 04:25:16;;;;;;;4.73;4.20;;;18.10;99.90;;;;;;5103684;28;20596;-80
2021/08/02 04:27:44;;;;;;;5.93;4.20;;;18.10;99.90;;;;;;5096472;28;21080;-82
2021/08/02 04:30:12;;;;;;;4.63;4.20;;;18.10;99.90;;;;;;5103537;28;20462;-80
2021/08/02 04:32:44;;;;;;;6.20;4.83;;;18.10;99.90;;;;;;5094322;28;20457;-80
2021/08/02 04:35:11;;;;;;;5.17;4.67;;;18.10;99.90;;;;;;5102735;28;20465;-81
2021/08/02 04:37:38;;;;;;;4.87;4.37;;;18.20;99.90;;;;;;5102418;28;20456;-80
2021/08/02 04:40:06;;;;;;;5.93;4.57;;;18.20;99.90;;;;;;5103065;28;20485;-80
2021/08/02 04:42:36;;;;;;;8.90;4.43;;;18.20;99.90;;;;;;5101739;28;20463;-80
2021/08/02 04:45:03;;;;;;;4.93;4.23;;;18.10;99.90;;;;;;5099443;28;20491;-81
2021/08/02 04:47:31;;;;;;;5.50;4.80;;;18.10;99.90;;;;;;5101691;28;20461;-80
2021/08/02 04:49:58;;;;;;;7.70;4.33;;;18.10;99.90;;;;;;5108477;28;20460;-80
2021/08/02 04:52:26;;;;;;;6.50;4.27;;;18.10;99.90;;;;;;5099157;28;20819;-82
2021/08/02 04:54:56;;;;;;;6.50;4.60;;;18.10;99.90;;;;;;5097153;28;20481;-80
2021/08/02 04:57:24;;;;;;;7.70;4.70;;;18.10;99.90;;;;;;5100062;28;20959;-83
2021/08/02 04:59:53;;;;;;;9.10;5.13;;;18.20;99.90;;;;;;5095685;28;20472;-82
2021/08/02 05:02:20;;;;;;;7.03;4.37;;;18.20;99.90;;;;;;5095933;28;20464;-79
2021/08/02 05:04:47;;;;;;;5.27;4.27;;;18.20;99.90;;;;;;5101285;28;20822;-81
2021/08/02 05:07:14;;;;;;;10.97;5.30;;;18.20;99.90;;;;;;5100687;28;20460;-81
2021/08/02 05:09:40;;;;;;;5.30;4.17;;;18.20;99.90;;;;;;5100159;28;20465;-82
2021/08/02 05:12:08;;;;;;;7.00;4.13;;;18.20;99.90;;;;;;5102306;28;20460;-80
2021/08/02 05:14:35;;;;;;;6.10;4.97;;;18.20;99.90;;;;;;5103626;28;21047;-80
2021/08/02 05:17:03;;;;;;;6.80;4.53;;;18.30;99.90;;;;;;5098625;28;20963;-80
2021/08/02 05:19:30;;;;;;;5.93;4.20;;;18.30;99.90;;;;;;5100403;28;20547;-80
2021/08/02 05:21:57;;;;;;;5.87;4.53;;;18.30;99.90;;;;;;5097970;28;20454;-80
2021/08/02 05:24:25;;;;;;;5.20;3.83;;;18.30;99.90;;;;;;5099874;28;20511;-81
2021/08/02 05:26:52;;;;;;;6.10;4.30;;;18.30;99.90;;;;;;5097418;28;20849;-80
2021/08/02 05:29:19;;;;;;;8.10;4.53;;;18.30;99.90;;;;;;5102370;28;20967;-81
2021/08/02 05:31:48;;;;;;;10.97;4.83;;;18.30;99.90;;;;;;5098574;28;20488;-80
2021/08/02 05:34:18;;;;;;;9.40;4.73;;;18.30;99.90;;;;;;5102408;28;20455;-70
2021/08/02 05:36:45;;;;;;;15.10;10.80;;;18.30;99.90;;;;;;5104693;28;20468;-70
2021/08/02 05:39:12;;;;;;;15.47;8.43;;;18.30;99.90;;;;;;5104406;27;20492;-70
2021/08/02 05:41:39;;;;;;;12.87;9.33;;;18.40;99.90;;;;;;5098215;27;20793;-70
2021/08/02 05:44:07;;;;;;;11.27;8.10;;;18.40;99.90;;;;;;5095965;28;21032;-70
2021/08/02 05:46:34;;;;;;;6.43;5.70;;;18.40;99.90;;;;;;5096839;28;20585;-70
2021/08/02 05:49:01;;;;;;;10.90;5.70;;;18.40;99.90;;;;;;5095869;28;20477;-70
2021/08/02 05:51:29;;;;;;;9.50;5.77;;;18.40;99.90;;;;;;5100247;28;20457;-70
2021/08/02 05:53:57;;;;;;;7.57;5.60;;;18.40;99.90;;;;;;5095007;28;20457;-70
2021/08/02 05:56:24;;;;;;;8.17;4.90;;;18.40;99.90;;;;;;5098393;28;20456;-70
2021/08/02 05:58:51;;;;;;;5.47;4.50;;;18.40;99.90;;;;;;5089582;28;20967;-70
2021/08/02 06:01:17;;;;;;;9.23;4.83;;;18.40;99.90;;;;;;5097997;28;20486;-70
2021/08/02 06:03:44;;;;;;;6.40;4.00;;;18.40;99.90;;;;;;5095317;28;20798;-71
2021/08/02 06:06:11;;;;;;;7.90;4.37;;;18.40;99.90;;;;;;5098430;28;20517;-70
2021/08/02 06:08:40;;;;;;;4.70;4.20;;;18.40;99.90;;;;;;5097841;28;20873;-70
2021/08/02 06:11:08;;;;;;;7.33;3.93;;;18.40;99.90;;;;;;5101437;28;20691;-70
2021/08/02 06:13:34;;;;;;;4.57;3.83;;;18.50;99.90;;;;;;5103315;28;20467;-70
2021/08/02 06:16:02;;;;;;;6.70;4.73;;;18.50;99.90;;;;;;5095705;28;20829;-70
2021/08/02 06:18:29;;;;;;;5.90;3.67;;;18.50;99.90;;;;;;5104416;27;20458;-70
2021/08/02 06:20:56;;;;;;;5.53;4.63;;;18.50;99.90;;;;;;5099386;28;20456;-70
2021/08/02 06:23:23;;;;;;;7.33;4.40;;;18.50;99.90;;;;;;5097042;28;20625;-71
2021/08/02 06:25:51;;;;;;;7.70;3.80;;;18.50;99.90;;;;;;5094856;28;20710;-70
2021/08/02 06:28:18;;;;;;;5.50;4.00;;;18.60;99.90;;;;;;5100400;28;20497;-70
2021/08/02 06:30:45;;;;;;;5.17;3.97;;;18.60;99.90;;;;;;5101996;28;20955;-70
2021/08/02 06:33:12;;;;;;;5.50;3.83;;;18.60;99.90;;;;;;5097232;28;20457;-70
2021/08/02 06:35:39;;;;;;;11.47;4.33;;;18.70;99.90;;;;;;5098201;28;20968;-70
2021/08/02 06:38:07;;;;;;;3.97;3.50;;;18.70;99.90;;;;;;5099721;28;20848;-70
2021/08/02 06:40:34;;;;;;;8.23;3.97;;;18.70;99.90;;;;;;5094702;28;20586;-70
2021/08/02 06:43:02;;;;;;;8.80;4.30;;;18.80;99.90;;;;;;5103215;28;20464;-70
2021/08/02 06:45:30;;;;;;;6.07;3.70;;;18.80;99.90;;;;;;5097021;28;20507;-71
2021/08/02 06:47:57;;;;;;;5.53;3.30;;;18.80;99.90;;;;;;5101201;28;20456;-70
2021/08/02 06:50:26;;;;;;;3.77;3.27;;;18.80;99.90;;;;;;5094368;28;20464;-70
2021/08/02 06:52:53;;;;;;;10.50;4.57;;;18.80;99.90;;;;;;5102236;28;20924;-70
2021/08/02 06:55:20;;;;;;;11.70;4.27;;;18.80;99.90;;;;;;5097837;28;20506;-70
2021/08/02 06:57:47;;;;;;;9.30;3.90;;;18.80;99.90;;;;;;5099766;28;20475;-70
2021/08/02 07:00:16;;;;;;;4.33;3.47;;;18.80;99.90;;;;;;5098591;28;20485;-70
2021/08/02 07:02:43;;;;;;;4.80;3.37;;;18.80;99.90;;;;;;5101884;28;20451;-70
2021/08/02 07:05:11;;;;;;;4.00;3.47;;;18.80;99.90;;;;;;5092697;28;20813;-70
2021/08/02 07:07:38;;;;;;;6.00;2.80;;;18.80;99.90;;;;;;5103025;28;20919;-70
2021/08/02 07:10:06;;;;;;;4.47;3.37;;;18.80;99.90;;;;;;5100315;28;20449;-70
2021/08/02 07:12:33;;;;;;;5.20;2.90;;;18.80;99.90;;;;;;5100619;28;20458;-70
2021/08/02 07:15:00;;;;;;;5.23;3.23;;;18.80;99.90;;;;;;5096418;28;20461;-70
2021/08/02 07:17:28;;;;;;;3.50;2.93;;;18.80;99.90;;;;;;5093107;28;20464;-71
2021/08/02 07:19:55;;;;;;;5.87;3.30;;;18.80;99.90;;;;;;5096322;27;20461;-70
2021/08/02 07:22:22;;;;;;;5.37;2.80;;;18.80;99.90;;;;;;5098578;28;20462;-71
2021/08/02 07:24:49;;;;;;;7.10;2.63;;;18.80;99.90;;;;;;5095157;28;20454;-70
2021/08/02 07:27:16;;;;;;;4.50;3.10;;;18.90;99.90;;;;;;5095996;28;20462;-71
2021/08/02 07:29:43;;;;;;;4.30;3.30;;;18.90;99.90;;;;;;5095787;28;20831;-70
2021/08/02 07:32:10;;;;;;;7.57;3.43;;;18.90;99.90;;;;;;5101966;28;20454;-70
2021/08/02 07:34:38;;;;;;;5.23;2.80;;;18.90;99.90;;;;;;5097932;28;20457;-70
2021/08/02 07:37:06;;;;;;;4.47;3.00;;;18.90;99.90;;;;;;5101152;28;20498;-69
2021/08/02 07:39:33;;;;;;;3.93;3.07;;;18.90;99.90;;;;;;5095579;28;20862;-69
2021/08/02 07:42:00;;;;;;;5.67;2.70;;;18.90;99.90;;;;;;5097423;28;20458;-70
2021/08/02 07:44:27;;;;;;;4.60;3.10;;;18.80;99.90;;;;;;5097908;28;20468;-70
2021/08/02 07:46:54;;;;;;;3.63;2.50;;;18.80;99.90;;;;;;5093995;28;20769;-69
2021/08/02 07:49:21;;;;;;;8.30;3.10;;;18.80;99.90;;;;;;5096540;28;20473;-70
2021/08/02 07:51:49;;;;;;;3.33;2.73;;;18.80;99.90;;;;;;5102799;28;20935;-70
2021/08/02 07:54:16;;;;;;;4.70;2.90;;;18.80;99.90;;;;;;5097114;28;20472;-69
2021/08/02 07:56:43;;;;;;;5.23;2.70;;;18.80;99.90;;;;;;5096623;28;20490;-70
2021/08/02 07:59:10;;;;;;;2.80;2.23;;;18.70;99.90;;;;;;5100572;28;20456;-70
2021/08/02 08:01:37;;;;;;;3.13;1.83;;;18.70;99.90;;;;;;5099452;28;20915;-71
2021/08/02 08:04:04;;;;;;;4.00;2.07;;;18.70;99.90;;;;;;5097735;28;20510;-69
2021/08/02 08:06:32;;;;;;;2.10;2.00;;;18.70;99.90;;;;;;5098839;28;20490;-70
2021/08/02 08:09:00;;;;;;;2.40;2.03;;;18.70;99.90;;;;;;5097709;28;20477;-70
2021/08/02 08:11:27;;;;;;;3.90;1.87;;;18.60;99.90;;;;;;5100653;28;21281;-80
2021/08/02 08:13:54;;;;;;;3.73;2.20;;;18.70;99.90;;;;;;5096295;28;20456;-82
2021/08/02 08:16:20;;;;;;;2.33;2.13;;;18.70;99.90;;;;;;5101314;28;20505;-80
2021/08/02 08:18:47;;;;;;;4.40;2.40;;;18.70;99.90;;;;;;5105243;27;20464;-80
2021/08/02 08:21:14;;;;;;;2.73;1.90;;;18.70;99.90;;;;;;5101176;27;20540;-80
2021/08/02 08:23:41;;;;;;;2.37;2.17;;;18.70;99.90;;;;;;5098794;28;21360;-81
2021/08/02 08:26:09;;;;;;;3.10;2.10;;;18.80;99.90;;;;;;5094740;28;20475;-80
2021/08/02 08:28:36;;;;;;;3.20;1.90;;;18.80;99.90;;;;;;5103013;28;20464;-80
2021/08/02 08:31:03;;;;;;;3.37;2.00;;;18.80;99.90;;;;;;5099352;28;20471;-80
2021/08/02 08:33:30;;;;;;;3.57;2.20;;;18.80;99.90;;;;;;5096370;28;20492;-80
2021/08/02 08:35:58;;;;;;;2.23;1.97;;;18.80;99.90;;;;;;5092696;28;20485;-82
2021/08/02 08:38:25;;;;;;;2.40;2.20;;;18.80;99.90;;;;;;5096883;28;21050;-80
2021/08/02 08:40:53;;;;;;;4.00;2.20;;;18.80;99.90;;;;;;5101311;28;20955;-81
2021/08/02 08:43:22;;;;;;;3.90;2.83;;;18.80;99.90;;;;;;5096003;28;20485;-82
2021/08/02 08:45:49;;;;;;;6.37;2.47;;;18.80;99.90;;;;;;5090654;28;20522;-82
2021/08/02 08:48:16;;;;;;;3.93;2.70;;;18.90;99.90;;;;;;5093993;28;20819;-81
2021/08/02 08:50:43;;;;;;;4.20;3.00;;;18.90;99.90;;;;;;5101176;28;20456;-80
2021/08/02 08:53:12;;;;;;;5.90;2.50;;;19.00;99.90;;;;;;5094499;28;20551;-80
2021/08/02 08:55:43;;;;;;;3.60;3.00;;;19.00;99.90;;;;;;5096402;28;20456;-80
2021/08/02 08:58:10;;;;;;;4.80;2.40;;;19.10;99.90;;;;;;5095075;28;20456;-80
2021/08/02 09:00:38;;;;;;;8.10;2.70;;;19.00;99.90;;;;;;5098241;28;20488;-81
2021/08/02 09:03:13;;;;;;;3.37;2.90;;;19.00;99.90;;;;;;5098100;28;20457;-80
2021/08/02 09:05:40;;;;;;;4.87;2.53;;;19.00;99.90;;;;;;5092743;28;20484;-79
2021/08/02 09:08:12;;;;;;;5.10;2.60;;;19.00;99.90;;;;;;5097067;28;20452;-80
2021/08/02 09:10:40;;;;;;;3.20;2.40;;;19.00;99.90;;;;;;5101239;28;20457;-80
2021/08/02 09:13:07;;;;;;;4.93;2.70;;;19.10;99.90;;;;;;5094078;28;20461;-80
2021/08/02 09:15:36;;;;;;;3.33;2.60;;;19.10;99.90;;;;;;5093638;28;20479;-80
2021/08/02 09:18:07;;;;;;;3.40;2.90;;;19.20;99.90;;;;;;5091797;27;20452;-81
2021/08/02 09:20:34;;;;;;;7.40;2.60;;;19.20;99.90;;;;;;5100251;28;20477;-80
2021/08/02 09:23:06;;;;;;;2.60;2.27;;;19.20;99.90;;;;;;5096362;28;20452;-82
2021/08/02 09:25:33;;;;;;;4.63;3.27;;;19.30;99.90;;;;;;5099164;28;20475;-82
2021/08/02 09:28:12;;;;;;;4.07;3.23;;;19.30;99.90;;;;;;5095040;28;20490;-80
2021/08/02 09:30:39;;;;;;;4.80;3.17;;;19.40;99.90;;;;;;5096663;28;20858;-80
2021/08/02 09:33:09;;;;;;;10.13;3.40;;;19.50;99.90;;;;;;5097289;28;20462;-81
2021/08/02 09:35:39;;;;;;;5.60;3.73;;;19.50;99.90;;;;;;5099492;28;20580;-80
2021/08/02 09:38:07;;;;;;;4.40;3.20;;;19.60;99.90;;;;;;5096424;28;20445;-82
2021/08/02 09:40:39;;;;;;;5.27;3.97;;;19.60;99.90;;;;;;5090490;28;20934;-81
2021/08/02 09:43:06;;;;;;;3.70;3.37;;;19.50;99.90;;;;;;5094673;28;20841;-80
2021/08/02 09:45:44;;;;;;;5.23;4.20;;;19.50;99.90;;;;;;5098659;28;20463;-80
2021/08/02 09:48:15;;;;;;;3.67;3.27;;;19.40;99.90;;;;;;5098613;28;20454;-82
2021/08/02 09:50:44;;;;;;;5.50;3.70;;;19.40;99.90;;;;;;5091149;28;21147;-80
2021/08/02 09:53:15;;;;;;;7.97;4.33;;;19.30;99.90;;;;;;5100367;28;20457;-81
2021/08/02 09:55:43;;;;;;;5.00;4.00;;;19.20;99.90;;;;;;5096496;28;20604;-80
2021/08/02 09:58:14;;;;;;;8.20;5.03;;;19.20;99.90;;;;;;5096624;28;20548;-81
2021/08/02 10:00:41;;;;;;;6.70;3.70;;;19.10;99.90;;;;;;5096443;28;20999;-81
2021/08/02 10:03:09;;;;;;;4.90;3.50;;;19.00;99.90;;;;;;5087258;28;20462;-80
2021/08/02 10:05:39;;;;;;;4.43;3.73;;;19.00;99.90;;;;;;5091430;28;20459;-80
2021/08/02 10:08:07;;;;;;;4.80;3.10;;;19.00;99.90;;;;;;5096780;28;20448;-80
2021/08/02 10:10:36;;;;;;;4.73;2.90;;;19.00;99.90;;;;;;5099839;28;20543;-80
2021/08/02 10:13:04;;;;;;;3.90;3.10;;;19.00;99.90;;;;;;5095966;28;20460;-82
2021/08/02 10:15:31;;;;;;;4.93;3.60;;;19.00;99.90;;;;;;5099717;28;20463;-80
2021/08/02 10:18:00;;;;;;;3.27;2.97;;;18.90;99.90;;;;;;5092054;28;20465;-81
2021/08/02 10:20:29;;;;;;;6.90;2.90;;;18.90;99.90;;;;;;5089658;28;20458;-80
2021/08/02 10:22:58;;;;;;;5.90;3.40;;;18.90;99.90;;;;;;5097056;28;20475;-79
2021/08/02 10:25:33;;;;;;;3.40;3.10;;;18.90;99.90;;;;;;5093371;28;20468;-82
2021/08/02 10:28:10;;;;;;;5.50;3.43;;;19.00;99.90;;;;;;5090713;28;20457;-80
2021/08/02 10:30:38;;;;;;;3.47;3.17;;;19.00;99.90;;;;;;5094846;28;20830;-80
2021/08/02 10:33:05;;;;;;;4.33;3.07;;;19.00;99.90;;;;;;5095004;28;20466;-80
2021/08/02 10:35:34;;;;;;;2.70;2.50;;;19.10;99.90;;;;;;5093259;28;20551;-81
2021/08/02 10:38:05;;;;;;;2.80;2.60;;;19.10;99.90;;;;;;5102651;28;20839;-83
2021/08/02 10:40:43;;;;;;;3.20;2.87;;;19.10;99.90;;;;;;5096320;28;20487;-80
2021/08/02 10:43:10;;;;;;;2.50;2.30;;;19.10;99.90;;;;;;5091387;28;20460;-80
2021/08/02 10:45:38;;;;;;;2.80;2.60;;;19.20;99.90;;;;;;5096140;28;20453;-81
2021/08/02 10:48:06;;;;;;;2.47;2.27;;;19.20;99.90;;;;;;5095699;28;20453;-79
2021/08/02 10:50:38;;;;;;;2.87;2.33;;;19.30;99.90;;;;;;5095048;28;20461;-82
2021/08/02 10:53:13;;;;;;;8.50;3.00;;;19.30;99.90;;;;;;5101929;28;20493;-81
2021/08/02 10:55:45;;;;;;;2.33;1.90;;;19.40;99.90;;;;;;5104608;28;20449;-80
2021/08/02 10:58:11;;;;;;;2.40;2.20;;;19.50;99.90;;;;;;5103954;28;21003;-80
2021/08/02 11:00:38;;;;;;;2.87;2.10;;;19.60;99.90;;;;;;5097640;28;20974;-81
2021/08/02 11:03:07;;;;;;;3.70;2.50;;;19.70;99.90;;;;;;5096597;28;20468;-80
2021/08/02 11:05:34;;;;;;;2.77;2.53;;;19.80;99.90;;;;;;5099935;28;20481;-80
2021/08/02 11:08:06;;;;;;;4.00;2.50;;;19.80;99.90;;;;;;5097944;28;20488;-81
2021/08/02 11:10:35;;;;;;;4.67;2.93;;;19.90;99.90;;;;;;5093768;28;20545;-81
2021/08/02 11:13:02;;;;;;;3.67;3.37;;;20.00;99.90;;;;;;5102997;28;20964;-81
2021/08/02 11:15:29;;;;;;;3.37;3.07;;;20.10;99.90;;;;;;5100864;28;20511;-79
2021/08/02 11:17:55;;;;;;;3.00;2.73;;;20.20;99.90;;;;;;5098638;28;20971;-80
2021/08/02 11:20:24;;;;;;;2.90;2.70;;;20.20;99.90;;;;;;5103598;27;20461;-81
2021/08/02 11:22:55;;;;;;;3.40;2.60;;;20.30;99.90;;;;;;5102086;28;20554;-80
2021/08/02 11:25:24;;;;;;;3.83;2.47;;;20.40;99.90;;;;;;5101379;28;20461;-79
2021/08/02 11:27:54;;;;;;;4.60;2.87;;;20.40;99.90;;;;;;5096051;28;20492;-80
2021/08/02 11:30:21;;;;;;;5.20;2.60;;;20.40;99.90;;;;;;5100147;28;20453;-80
2021/08/02 11:32:49;;;;;;;3.23;3.00;;;20.50;99.90;;;;;;5100218;28;20457;-82
2021/08/02 11:35:17;;;;;;;3.40;2.80;;;20.60;99.90;;;;;;5094875;28;20469;-83
2021/08/02 11:37:50;;;;;;;3.23;2.93;;;20.60;99.90;;;;;;5101741;28;20450;-81
2021/08/02 11:40:18;;;;;;;4.67;3.20;;;20.70;99.90;;;;;;5099022;28;20480;-80
2021/08/02 11:42:47;;;;;;;3.13;2.83;;;20.70;99.90;;;;;;5100202;28;20461;-80
2021/08/02 11:45:16;;;;;;;3.63;3.33;;;20.80;99.90;;;;;;5098565;28;20462;-79
2021/08/02 11:47:45;;;;;;;2.77;2.57;;;20.80;99.90;;;;;;5098009;28;20499;-79
2021/08/02 11:50:13;;;;;;;2.30;2.10;;;20.90;99.90;;;;;;5098640;28;20461;-79
2021/08/02 11:52:41;;;;;;;3.03;2.60;;;20.90;99.90;;;;;;5099951;28;21017;-80
2021/08/02 11:55:12;;;;;;;2.77;2.50;;;21.00;99.90;;;;;;5101938;28;20541;-80
2021/08/02 11:57:39;;;;;;;2.60;2.40;;;21.00;99.90;;;;;;5101279;28;20553;-79
2021/08/02 12:00:11;;;;;;;3.40;2.80;;;21.10;99.90;;;;;;5097078;28;20468;-80
2021/08/02 12:02:42;;;;;;;3.27;2.70;;;21.20;99.90;;;;;;5095646;28;20818;-80
2021/08/02 12:05:19;;;;;;;2.63;2.30;;;21.20;99.90;;;;;;5101810;28;20464;-79
2021/08/02 12:07:46;;;;;;;4.13;2.90;;;21.30;99.90;;;;;;5098318;28;20499;-80
2021/08/02 12:10:16;;;;;;;4.70;2.80;;;21.30;99.90;;;;;;5095167;28;20817;-79
2021/08/02 12:12:43;;;;;;;3.00;2.70;;;21.30;99.90;;;;;;5095309;28;20478;-79
2021/08/02 12:15:11;;;;;;;2.80;2.60;;;21.30;99.90;;;;;;5102090;28;20460;-80
2021/08/02 12:17:48;;;;;;;2.40;2.23;;;21.40;99.90;;;;;;5095088;28;20814;-80
2021/08/02 12:20:15;;;;;;;2.90;2.33;;;21.50;99.90;;;;;;5099187;27;20457;-80
2021/08/02 12:22:42;;;;;;;7.23;2.90;;;21.60;99.90;;;;;;5096874;28;20457;-80
2021/08/02 12:25:10;;;;;;;5.60;2.97;;;21.60;99.90;;;;;;5099374;28;20469;-82
2021/08/02 12:27:36;;;;;;;3.20;2.53;;;21.60;99.90;;;;;;5094642;28;20478;-81
2021/08/02 12:30:06;;;;;;;4.23;2.60;;;21.70;99.90;;;;;;5094949;28;21095;-79
2021/08/02 12:32:40;;;;;;;3.20;2.13;;;21.70;99.90;;;;;;5094118;28;20511;-82
2021/08/02 12:35:11;;;;;;;2.67;2.43;;;21.70;99.90;;;;;;5093029;28;20474;-80
2021/08/02 12:37:38;;;;;;;3.23;2.67;;;21.70;99.90;;;;;;5099217;28;20956;-80
2021/08/02 12:40:09;;;;;;;4.57;3.00;;;21.70;99.90;;;;;;5097980;28;20746;-79
2021/08/02 12:42:37;;;;;;;4.07;3.67;;;21.70;99.90;;;;;;5093452;28;20453;-79
2021/08/02 12:45:04;;;;;;;3.33;3.00;;;21.70;99.90;;;;;;5099669;28;20457;-79
2021/08/02 12:47:31;;;;;;;2.73;2.53;;;21.80;99.90;;;;;;5098279;28;20508;-82
2021/08/02 12:49:59;;;;;;;3.10;2.80;;;21.80;99.90;;;;;;5100217;28;20457;-79
2021/08/02 12:52:29;;;;;;;6.60;3.00;;;21.80;99.90;;;;;;5096088;28;20457;-79
2021/08/02 12:54:57;;;;;;;6.10;3.13;;;21.80;99.90;;;;;;5093364;28;20470;-79